createdAt,value
2022-12-18T22:22:53.307Z,18.75
2022-12-18T22:23:53.890Z,18.75
2022-12-18T22:24:54.361Z,18.76
2022-12-18T22:25:53.918Z,18.78
2022-12-18T22:26:53.913Z,18.76
2022-12-18T22:27:53.907Z,18.78
2022-12-18T22:28:53.894Z,18.78
2022-12-18T22:29:53.874Z,18.78
2022-12-18T22:30:55.983Z,18.76
2022-12-18T22:31:53.864Z,18.76
2022-12-18T22:32:53.847Z,18.76
2022-12-18T22:33:53.836Z,18.76
2022-12-18T22:34:53.859Z,18.75
2022-12-18T22:35:53.816Z,18.74
2022-12-18T22:36:53.869Z,18.75
2022-12-18T22:37:53.795Z,18.74
2022-12-18T22:38:53.786Z,18.74
2022-12-18T22:39:53.799Z,18.74
2022-12-18T22:40:53.772Z,18.74
2022-12-18T22:41:53.755Z,18.75
2022-12-18T22:42:53.760Z,18.71
2022-12-18T22:43:53.725Z,18.70
2022-12-18T22:44:53.728Z,18.71
2022-12-18T22:45:53.827Z,18.70
2022-12-18T22:47:06.203Z,18.70
2022-12-18T22:47:53.707Z,18.68
2022-12-18T22:48:53.684Z,18.68
2022-12-18T22:49:53.663Z,18.68
2022-12-18T22:50:54.141Z,18.67
2022-12-18T22:51:53.646Z,18.67
2022-12-18T22:52:53.635Z,18.67
2022-12-18T22:53:53.622Z,18.67
2022-12-18T22:54:54.193Z,18.67
2022-12-18T22:55:53.620Z,18.67
2022-12-18T22:56:53.594Z,18.67
2022-12-18T22:57:53.576Z,18.66
2022-12-18T22:58:53.696Z,18.66
2022-12-18T22:59:53.619Z,18.66
2022-12-18T23:00:53.549Z,18.64
2022-12-18T23:01:58.840Z,18.64
2022-12-18T23:02:59.812Z,18.63
2022-12-18T23:03:53.541Z,18.64
2022-12-18T23:04:53.509Z,18.64
2022-12-18T23:05:53.499Z,18.63
2022-12-18T23:06:53.485Z,18.63
2022-12-18T23:07:53.500Z,18.63
2022-12-18T23:08:56.104Z,18.63
2022-12-18T23:09:57.359Z,18.61
2022-12-18T23:10:53.451Z,18.63
2022-12-18T23:11:53.682Z,18.61
2022-12-18T23:12:53.432Z,18.61
2022-12-18T23:13:54.166Z,18.60
2022-12-18T23:14:53.404Z,18.60
2022-12-18T23:15:53.424Z,18.60
2022-12-18T23:16:53.454Z,18.61
2022-12-18T23:17:53.370Z,18.58
2022-12-18T23:18:53.361Z,18.60
2022-12-18T23:19:54.172Z,18.60
2022-12-18T23:20:53.342Z,18.58
2022-12-18T23:21:54.549Z,18.58
2022-12-18T23:22:53.700Z,18.57
2022-12-18T23:23:53.303Z,18.58
2022-12-18T23:24:53.297Z,18.58
2022-12-18T23:25:53.281Z,18.57
2022-12-18T23:26:53.276Z,18.60
2022-12-18T23:27:53.300Z,18.57
2022-12-18T23:28:53.254Z,18.58
2022-12-18T23:29:53.590Z,18.60
2022-12-18T23:30:53.299Z,18.58
2022-12-18T23:31:53.849Z,18.57
2022-12-18T23:32:53.210Z,18.57
2022-12-18T23:33:53.198Z,18.57
2022-12-18T23:34:53.195Z,18.57
2022-12-18T23:35:53.176Z,18.57
2022-12-18T23:36:56.189Z,18.57
2022-12-18T23:38:00.801Z,18.56
2022-12-18T23:38:53.154Z,18.57
2022-12-18T23:39:53.132Z,18.57
2022-12-18T23:40:53.127Z,18.54
2022-12-18T23:41:53.537Z,18.56
2022-12-18T23:42:53.104Z,18.56
2022-12-18T23:43:53.089Z,18.56
2022-12-18T23:44:53.083Z,18.54
2022-12-18T23:45:55.775Z,18.54
2022-12-18T23:46:53.172Z,18.54
2022-12-18T23:47:53.050Z,18.52
2022-12-18T23:48:53.039Z,18.52
2022-12-18T23:49:53.031Z,18.52
2022-12-18T23:50:53.022Z,18.51
2022-12-18T23:51:53.005Z,18.52
2022-12-18T23:52:52.998Z,18.52
2022-12-18T23:53:53.428Z,18.52
2022-12-18T23:54:52.978Z,18.52
2022-12-18T23:55:52.964Z,18.52
2022-12-18T23:56:52.956Z,18.52
2022-12-18T23:57:52.943Z,18.51
2022-12-18T23:58:52.979Z,18.51
2022-12-18T23:59:52.926Z,18.51
